Albury
Weather
Information

and Archive.
Albury Local Internet Skycam This service provided and funded by Albury Local Internet

Help keep our weatherstation running:

Lavington Weatherstation live data - Conditions of Use

Last updated on 24-Mar-2017 at 21:04:06
Temperature
  Currently 22.2 degrees C
  Apparent Temperature ("Wind Chill") is 19.0 degrees C
  Today has ranged from 15.4 at 06:50 to 29.0 at 14:45
  Yesterday ranged from 17.4 at 23:12 to 22.8 at 16:33
Wind
  Now:   10.1kmh, gusting to  11.2kmh from 346 degrees (NNW)
  Hour:  10.3kmh, gusting to  14.0kmh
Rainfall
   0.0mm Midnight to Midnight (ie, yesterday)
   0.0mm Since Midnight (ie, so far today)
   0.0mm 9am yesterday to 9am today
  87.0mm Total this month
Misc items
  Relative humidity is 31%
  Dewpoint is 4.3 deg C
  Estimated Cloudbase is 7400 feet
  Barometric Pressure is 1017.0 mbar
  Solar Insolation: 0 W/m^2
  UV Index: 0.0 (Low) *NEW*
Top Solar flares in the last 24 hours

Last 24 hours Temperature Graph (click graph for history)
temperature

Last 24 hours Dynamic Wind display (click image for 4-hour image):
Wind Rose

Current Yarrawonga Weather Radar and Infrared Satellite Images from the BOM.

Hourly summaries in the tables below are cumulative and peak values
for the preceding hour, and instantaneous values at the hour.
So far today, 24-Mar-2017
Time   Barom.  Wind + Gust    Direction   RH   Rain    Temp.  Minimum    Maximum
01:00  1020.0   9.2  18.0kmh  117 (ESE)   49%  0.0mm   17.4  17.2@00:09 17.8@00:18
02:00  1019.0   9.0  15.5kmh  116 (ESE)   51%  0.0mm   16.8  16.9@01:53 17.5@01:17
03:00  1019.0   7.8  15.5kmh  139 ( SE)   50%  0.0mm   17.0  16.5@02:33 17.0@02:50
04:00  1019.0   7.7  15.5kmh  138 ( SE)   52%  0.0mm   16.4  16.2@03:28 17.0@03:00
05:00  1019.0   7.2  13.3kmh  134 ( SE)    9%  0.0mm   15.7  15.8@04:35 16.4@04:00
06:00  1019.0   8.0  16.2kmh  149 (SSE)   52%  0.0mm   16.4  15.7@05:00 16.5@05:51
07:00  1019.0   7.9  14.0kmh  109 (ESE)    3%  0.0mm   15.7  15.4@06:50 16.5@06:17
08:00  1020.0   7.0  11.9kmh  140 ( SE)   52%  0.0mm   16.8  15.4@07:15 16.8@07:59
09:00  1020.0   5.8  10.8kmh  142 ( SE)   42%  0.0mm   19.4  16.8@08:00 19.4@08:59
10:00  1020.0   8.4  14.8kmh  150 (SSE)   38%  0.0mm   20.5  19.2@09:01 20.6@09:28
11:00  1020.0   8.3  15.5kmh  133 ( SE)   30%  0.0mm   23.0  20.4@10:05 23.7@10:29
12:00  1020.0   9.3  17.6kmh  138 ( SE)   26%  0.0mm   24.3  22.6@11:02 25.1@11:24
13:00  1019.0   8.7  16.9kmh  160 (SSE)   19%  0.0mm   25.6  24.0@12:03 26.5@12:57
14:00  1019.0   8.2  15.5kmh  106 (ESE)   14%  0.0mm   25.1  25.1@13:59 27.4@13:23
15:00  1017.0   8.3  14.8kmh  124 ( SE)   10%  0.0mm   26.5  25.0@14:14 29.0@14:45
16:00  1017.0   8.7  16.2kmh  112 (ESE)    2%  0.0mm   26.4  26.1@15:08 28.3@15:44
17:00  1016.0   7.2  11.9kmh  156 (SSE)    7%  0.0mm   26.2  26.1@16:01 28.5@16:39
18:00  1016.0   5.7  11.2kmh  137 ( SE)   13%  0.0mm   25.2  25.2@17:59 26.5@17:42
19:00  1016.0   2.9   7.9kmh  134 ( SE)   21%  0.0mm   23.5  23.5@18:59 25.2@18:00
20:00  1017.0   0.0   5.0kmh  135 ( SE)   33%  0.0mm   21.7  21.7@19:57 23.5@19:00
21:00  1017.0   9.2  18.0kmh  356 ( N )   32%  0.0mm   22.2  21.7@20:00 22.6@20:32
21:04  1017.0  10.3  14.0kmh   17 (NNE)   31%  0.0mm   22.2  22.2@21:00 22.2@21:00


Summary for yesterday, 23-Mar-2017
Time   Barom.  Wind + Gust    Direction   RH   Rain    Temp.  Minimum    Maximum
01:00  1017.0  13.6  26.3kmh  139 ( SE)   42%  0.0mm   19.7  19.6@00:12 19.7@00:00
02:00  1017.0  12.7  23.0kmh  139 ( SE)   41%  0.0mm   19.6  19.5@01:54 19.7@01:00
03:00  1017.0  12.4  20.2kmh  142 ( SE)   41%  0.0mm   19.5  19.5@02:03 19.6@02:00
04:00  1017.0  12.3  22.3kmh  158 (SSE)   41%  0.0mm   19.3  19.3@03:51 19.5@03:00
05:00  1017.0   9.6  18.0kmh  134 ( SE)   42%  0.0mm   19.0  19.0@04:56 19.3@04:00
06:00  1018.0  11.0  18.7kmh  144 ( SE)   43%  0.0mm   18.6  18.7@05:23 19.0@05:00
07:00  1018.0   9.3  15.5kmh  138 ( SE)   44%  0.0mm   18.6  18.5@06:40 18.7@06:08
08:00  1018.0   9.2  16.2kmh  150 (SSE)   44%  0.0mm   19.0  18.3@07:34 19.1@07:59
09:00  1019.0  10.3  19.4kmh  117 (ESE)   37%  0.0mm   20.5  18.9@08:03 20.5@08:58
10:00  1019.0  13.0  28.4kmh  147 (SSE)   34%  0.0mm   21.5  20.3@09:02 21.6@09:53
11:00  1019.0  16.7  32.4kmh  130 ( SE)   35%  0.0mm   21.4  21.0@10:06 22.0@10:41
12:00  1019.0  15.5  31.3kmh  141 ( SE)   37%  0.0mm   20.7  20.9@11:43 22.2@11:30
13:00  1019.0  15.8  29.2kmh  125 ( SE)   37%  0.0mm   21.3  20.5@12:12 21.4@12:46
14:00  1019.0  15.9  28.4kmh  139 ( SE)   40%  0.0mm   20.6  20.6@13:54 21.8@13:35
15:00  1019.0  15.9  28.4kmh  156 (SSE)   40%  0.0mm   20.4  20.0@14:16 20.6@14:00
16:00  1019.0  14.6  29.2kmh  163 (SSE)   40%  0.0mm   20.6  20.3@15:04 21.6@15:34
17:00  1018.0  13.8  27.7kmh  164 (SSE)   34%  0.0mm   22.4  20.4@16:01 22.8@16:33
18:00  1018.0  13.9  25.6kmh  145 ( SE)   39%  0.0mm   20.9  20.8@17:28 22.4@17:00
19:00  1018.0  12.4  24.8kmh  142 ( SE)   41%  0.0mm   20.1  19.7@18:36 20.9@18:00
20:00  1018.0  10.1  17.6kmh  139 ( SE)   46%  0.0mm   18.8  18.7@19:53 20.1@19:00
21:00  1019.0   8.9  16.9kmh  140 ( SE)   48%  0.0mm   18.4  18.3@20:40 18.9@20:01
22:00  1020.0   6.7  16.2kmh  130 ( SE)   48%  0.0mm   17.8  17.9@21:57 18.5@21:31
23:00  1020.0   7.5  13.3kmh  142 ( SE)   50%  0.0mm   17.9  17.8@22:00 18.1@22:11
00:00  1020.0   6.9  14.0kmh  108 (ESE)   49%  0.0mm   17.7  17.4@23:12 17.9@23:00